Time;durP1;ratioP1;P1;durP2;ratioP2;P2;SDS_P1;SDS_P2;PMS_P1;PMS_P2;Temp;Humidity;BMP_temperature;BMP_pressure;BME280_temperature;BME280_humidity;BME280_pressure;Samples;Min_cycle;Max_cycle;Signal;HPM_P1;HPM_P2
2023/03/13 00:01:40;;;;;;;7.67;3.93;;;11.50;74.00;;;;;;5077173;28;20294;-82
2023/03/13 00:04:05;;;;;;;9.13;4.30;;;11.50;74.80;;;;;;5071263;28;20263;-82
2023/03/13 00:06:35;;;;;;;9.43;4.13;;;11.40;75.00;;;;;;5094723;28;20179;-82
2023/03/13 00:09:04;;;;;;;6.20;3.60;;;11.50;74.90;;;;;;5102280;28;20185;-81
2023/03/13 00:11:30;;;;;;;8.20;3.73;;;11.50;74.40;;;;;;5103292;28;20202;-82
2023/03/13 00:13:57;;;;;;;8.60;4.13;;;11.50;74.10;;;;;;5093691;28;20187;-82
2023/03/13 00:16:23;;;;;;;8.03;4.17;;;11.50;74.50;;;;;;5081925;28;20233;-83
2023/03/13 00:18:51;;;;;;;9.03;3.60;;;11.50;75.10;;;;;;5064494;28;20186;-83
2023/03/13 00:21:19;;;;;;;10.43;4.23;;;11.50;74.90;;;;;;5070905;28;20201;-82
2023/03/13 00:23:45;;;;;;;8.80;4.00;;;11.60;73.30;;;;;;5078470;28;20189;-81
2023/03/13 00:26:13;;;;;;;6.50;3.03;;;11.60;73.80;;;;;;5063916;28;20192;-81
2023/03/13 00:28:40;;;;;;;5.40;3.67;;;11.50;74.00;;;;;;5075088;28;20639;-81
2023/03/13 00:31:12;;;;;;;5.57;3.60;;;11.60;74.30;;;;;;5081315;28;20289;-82
2023/03/13 00:33:40;;;;;;;7.50;3.50;;;11.50;74.30;;;;;;5064092;28;20568;-81
2023/03/13 00:36:09;;;;;;;7.23;3.90;;;11.60;72.90;;;;;;5075368;28;20192;-81
2023/03/13 00:38:35;;;;;;;7.03;3.20;;;11.60;73.00;;;;;;5062934;28;20304;-82
2023/03/13 00:41:03;;;;;;;7.20;3.60;;;11.60;73.50;;;;;;5074437;28;20207;-83
2023/03/13 00:43:29;;;;;;;7.47;3.17;;;11.60;72.80;;;;;;5081357;28;20183;-82
2023/03/13 00:45:55;;;;;;;8.37;3.23;;;11.70;73.10;;;;;;5062745;28;20189;-84
2023/03/13 00:48:22;;;;;;;6.13;3.37;;;11.60;73.70;;;;;;5063022;28;20206;-83
2023/03/13 00:50:47;;;;;;;8.43;3.67;;;11.60;73.00;;;;;;5067320;28;20208;-82
2023/03/13 00:53:13;;;;;;;7.77;3.70;;;11.60;73.20;;;;;;5062109;28;20184;-81
2023/03/13 00:55:49;;;;;;;6.00;3.30;;;11.60;72.70;;;;;;5080705;28;20194;-83
2023/03/13 00:58:15;;;;;;;7.27;3.57;;;11.70;72.90;;;;;;5094971;23;20260;-80
2023/03/13 01:00:40;;;;;;;8.23;3.47;;;11.70;72.30;;;;;;5101208;28;20208;-82
2023/03/13 01:03:06;;;;;;;6.50;2.90;;;11.60;72.50;;;;;;5106304;28;20185;-84
2023/03/13 01:05:31;;;;;;;5.63;3.40;;;11.70;72.20;;;;;;5107293;28;20678;-84
2023/03/13 01:07:57;;;;;;;6.37;3.23;;;11.70;72.50;;;;;;5107070;28;20179;-82
2023/03/13 01:10:23;;;;;;;7.73;3.17;;;11.70;72.10;;;;;;5089328;28;20199;-83
2023/03/13 01:12:48;;;;;;;7.57;3.70;;;11.80;71.80;;;;;;5079086;28;20179;-84
2023/03/13 01:15:15;;;;;;;5.87;3.70;;;11.80;71.10;;;;;;5096693;28;20224;-84
2023/03/13 01:17:43;;;;;;;4.80;2.60;;;11.80;71.20;;;;;;5106450;28;20199;-83
2023/03/13 01:20:09;;;;;;;8.17;3.20;;;11.80;71.70;;;;;;5105075;28;20257;-83
2023/03/13 01:22:35;;;;;;;7.57;3.03;;;11.70;71.80;;;;;;5094942;28;20179;-83
2023/03/13 01:25:00;;;;;;;6.47;2.70;;;11.70;72.00;;;;;;5092513;28;20179;-84
2023/03/13 01:27:26;;;;;;;8.03;3.37;;;11.70;72.40;;;;;;5086829;28;20583;-83
2023/03/13 01:29:51;;;;;;;6.10;2.87;;;11.70;71.90;;;;;;5104093;28;20223;-83
2023/03/13 01:32:17;;;;;;;3.80;2.30;;;11.80;71.60;;;;;;5090229;28;20185;-82
2023/03/13 01:34:42;;;;;;;5.73;2.93;;;11.80;71.70;;;;;;5091736;28;20199;-82
2023/03/13 01:37:08;;;;;;;5.60;2.67;;;11.80;71.90;;;;;;5087436;28;20214;-83
2023/03/13 01:39:34;;;;;;;6.83;3.30;;;11.90;71.40;;;;;;5104379;28;20264;-82
2023/03/13 01:41:59;;;;;;;4.47;2.37;;;12.00;70.80;;;;;;5084004;28;20180;-83
2023/03/13 01:44:25;;;;;;;5.57;2.63;;;12.00;72.50;;;;;;5087332;28;20440;-82
2023/03/13 01:46:52;;;;;;;4.73;2.73;;;11.90;73.10;;;;;;5073141;28;20181;-82
2023/03/13 01:49:22;;;;;;;6.23;3.00;;;12.10;72.80;;;;;;5088281;28;20234;-83
2023/03/13 01:51:57;;;;;;;5.03;2.47;;;12.00;73.70;;;;;;5089288;28;20187;-82
2023/03/13 01:54:34;;;;;;;4.10;2.53;;;12.00;74.80;;;;;;5089402;28;20193;-83
2023/03/13 01:57:24;;;;;;;4.23;2.50;;;11.90;76.50;;;;;;5087507;28;20203;-82
2023/03/13 02:00:04;;;;;;;5.97;2.67;;;11.80;77.40;;;;;;5102113;28;20342;-82
2023/03/13 02:02:30;;;;;;;3.93;2.80;;;11.80;78.40;;;;;;5089013;28;20168;-83
2023/03/13 02:05:00;;;;;;;3.60;2.50;;;11.80;79.20;;;;;;5100574;28;20179;-83
2023/03/13 02:07:41;;;;;;;5.20;2.83;;;11.80;79.50;;;;;;5107127;28;20185;-84
2023/03/13 02:10:09;;;;;;;4.67;2.60;;;11.80;80.90;;;;;;5095771;28;20204;-82
2023/03/13 02:12:38;;;;;;;4.80;2.57;;;11.80;80.90;;;;;;5109144;28;20271;-82
2023/03/13 02:15:08;;;;;;;2.70;2.43;;;11.80;81.90;;;;;;5105679;28;20208;-82
2023/03/13 02:17:38;;;;;;;4.73;2.33;;;11.70;83.00;;;;;;5108615;28;20190;-83
2023/03/13 02:20:04;;;;;;;4.63;2.77;;;11.70;84.10;;;;;;5092437;28;20215;-83
2023/03/13 02:22:58;;;;;;;3.53;2.27;;;11.70;83.30;;;;;;5085540;28;20171;-84
2023/03/13 02:25:23;;;;;;;3.40;2.40;;;11.60;84.60;;;;;;5104551;28;20255;-82
2023/03/13 02:28:02;;;;;;;3.77;2.50;;;11.60;85.70;;;;;;5101226;28;20184;-85
2023/03/13 02:30:28;;;;;;;3.73;2.80;;;11.60;85.60;;;;;;5085330;28;20200;-83
2023/03/13 02:32:55;;;;;;;5.50;2.33;;;11.60;86.60;;;;;;5098520;28;20199;-81
2023/03/13 02:35:22;;;;;;;6.37;2.90;;;11.50;87.40;;;;;;5094594;28;20281;-83
2023/03/13 02:37:51;;;;;;;3.70;2.50;;;11.50;88.00;;;;;;5094061;28;20226;-81
2023/03/13 02:40:36;;;;;;;5.70;2.10;;;11.50;88.40;;;;;;5096262;28;20207;-84
2023/03/13 02:43:08;;;;;;;6.27;2.53;;;11.50;87.70;;;;;;5105745;28;20178;-84
2023/03/13 02:45:34;;;;;;;3.87;2.20;;;11.50;89.10;;;;;;5097957;28;20259;-79
2023/03/13 02:48:00;;;;;;;4.07;2.30;;;11.60;89.40;;;;;;5087654;28;20180;-82
2023/03/13 02:50:25;;;;;;;4.40;2.50;;;11.60;89.90;;;;;;5105121;28;20214;-82
2023/03/13 02:53:04;;;;;;;3.80;2.30;;;11.60;90.90;;;;;;5090584;28;20211;-82
2023/03/13 02:55:35;;;;;;;4.07;2.27;;;11.60;90.80;;;;;;5107624;28;20194;-81
2023/03/13 02:58:00;;;;;;;2.23;1.90;;;11.60;90.70;;;;;;5105937;28;20207;-83
2023/03/13 03:00:26;;;;;;;3.40;2.20;;;11.70;90.00;;;;;;5100928;28;20207;-83
2023/03/13 03:02:53;;;;;;;3.67;2.03;;;11.70;91.10;;;;;;5089580;28;20185;-82
2023/03/13 03:05:18;;;;;;;2.57;1.97;;;11.60;92.60;;;;;;5106599;28;20182;-84
2023/03/13 03:07:44;;;;;;;3.67;2.37;;;11.60;94.20;;;;;;5107076;28;20195;-82
2023/03/13 03:10:10;;;;;;;4.07;2.20;;;11.70;95.90;;;;;;5100395;28;20291;-82
2023/03/13 03:12:36;;;;;;;4.57;1.90;;;11.60;95.80;;;;;;5085799;28;20276;-82
2023/03/13 03:15:03;;;;;;;3.93;2.10;;;11.60;96.90;;;;;;5086558;28;20183;-81
2023/03/13 03:17:29;;;;;;;4.33;2.30;;;11.50;97.90;;;;;;5094828;28;20222;-81
2023/03/13 03:19:55;;;;;;;3.43;2.00;;;11.50;98.30;;;;;;5105155;28;20202;-82
2023/03/13 03:22:22;;;;;;;4.00;2.17;;;11.60;98.50;;;;;;5088005;28;20196;-85
2023/03/13 03:24:48;;;;;;;2.40;2.00;;;11.60;98.80;;;;;;5104197;28;20188;-82
2023/03/13 03:27:13;;;;;;;5.57;2.57;;;11.50;99.80;;;;;;5104753;28;20213;-83
2023/03/13 03:29:39;;;;;;;3.20;2.20;;;11.50;99.90;;;;;;5097460;28;20222;-82
2023/03/13 03:32:05;;;;;;;3.20;1.87;;;11.60;99.90;;;;;;5092977;28;20254;-84
2023/03/13 03:34:31;;;;;;;2.40;2.10;;;11.70;99.50;;;;;;5095435;28;20203;-83
2023/03/13 03:36:57;;;;;;;3.70;1.90;;;11.70;99.50;;;;;;5077293;28;20286;-84
2023/03/13 03:39:22;;;;;;;3.77;2.30;;;11.60;99.90;;;;;;5081821;28;20199;-81
2023/03/13 03:41:48;;;;;;;5.20;1.93;;;11.60;99.90;;;;;;5089225;28;20176;-83
2023/03/13 03:44:13;;;;;;;2.47;1.77;;;11.50;99.90;;;;;;5080222;28;20199;-82
2023/03/13 03:46:39;;;;;;;2.60;1.83;;;11.50;99.90;;;;;;5092400;28;20179;-84
2023/03/13 03:49:05;;;;;;;2.30;2.00;;;11.50;99.90;;;;;;5080898;28;20672;-83
2023/03/13 03:51:30;;;;;;;1.80;1.70;;;11.50;99.90;;;;;;5078246;28;20207;-83
2023/03/13 03:53:56;;;;;;;2.37;2.17;;;11.60;98.50;;;;;;5077362;28;20271;-84
2023/03/13 03:56:22;;;;;;;2.73;1.80;;;11.70;97.70;;;;;;5077126;28;20212;-84
2023/03/13 03:58:47;;;;;;;3.53;2.00;;;11.80;96.50;;;;;;5077222;28;20207;-83
2023/03/13 04:01:13;;;;;;;5.57;2.10;;;11.80;96.50;;;;;;5079525;28;20165;-84
2023/03/13 04:03:38;;;;;;;2.83;2.00;;;11.70;96.40;;;;;;5084966;28;20187;-82
2023/03/13 04:06:05;;;;;;;4.20;2.10;;;11.80;96.40;;;;;;5086465;28;20207;-83
2023/03/13 04:08:31;;;;;;;3.90;1.93;;;11.80;96.60;;;;;;5097059;28;20187;-83
2023/03/13 04:10:59;;;;;;;5.30;2.03;;;11.70;96.90;;;;;;5088475;28;20285;-82
2023/03/13 04:13:24;;;;;;;2.83;1.80;;;11.70;96.50;;;;;;5077081;28;20209;-85
2023/03/13 04:15:50;;;;;;;4.67;2.10;;;11.60;97.00;;;;;;5075737;28;20181;-82
2023/03/13 04:18:16;;;;;;;4.00;1.87;;;11.80;96.00;;;;;;5080633;28;20685;-83
2023/03/13 04:20:42;;;;;;;3.00;2.10;;;11.70;96.50;;;;;;5097754;28;20345;-83
2023/03/13 04:23:07;;;;;;;2.93;2.00;;;11.70;96.30;;;;;;5099514;28;20254;-82
2023/03/13 04:25:34;;;;;;;2.63;2.13;;;11.80;96.10;;;;;;5094043;28;20191;-84
2023/03/13 04:28:00;;;;;;;2.80;1.80;;;11.80;95.20;;;;;;5090299;28;20183;-82
2023/03/13 04:30:26;;;;;;;3.60;2.10;;;11.90;95.00;;;;;;5073953;28;20252;-82
2023/03/13 04:32:52;;;;;;;3.97;2.20;;;11.90;94.70;;;;;;5076997;28;20192;-82
2023/03/13 04:35:18;;;;;;;2.87;2.27;;;12.00;94.20;;;;;;5084319;28;20184;-83
2023/03/13 04:37:44;;;;;;;2.10;1.90;;;12.00;94.50;;;;;;5095106;28;20227;-84
2023/03/13 04:40:11;;;;;;;2.37;2.17;;;12.00;94.60;;;;;;5094871;28;20199;-80
2023/03/13 04:42:37;;;;;;;2.17;1.90;;;12.00;94.50;;;;;;5085085;28;20227;-84
2023/03/13 04:45:04;;;;;;;4.13;2.30;;;12.00;94.30;;;;;;5080494;28;20217;-81
2023/03/13 04:47:29;;;;;;;4.20;2.10;;;12.10;93.50;;;;;;5089324;28;20529;-82
2023/03/13 04:49:55;;;;;;;2.20;2.07;;;12.10;92.80;;;;;;5079347;28;20209;-84
2023/03/13 04:52:21;;;;;;;2.37;2.00;;;12.20;92.90;;;;;;5080827;28;20195;-82
2023/03/13 04:54:47;;;;;;;2.37;1.77;;;12.20;93.20;;;;;;5080724;28;20184;-84
2023/03/13 04:57:12;;;;;;;2.67;1.77;;;12.20;93.20;;;;;;5079863;28;20266;-84
2023/03/13 04:59:38;;;;;;;2.27;1.93;;;12.30;92.70;;;;;;5085008;28;20215;-83
2023/03/13 05:02:03;;;;;;;2.00;1.83;;;12.30;93.30;;;;;;5100284;28;20203;-84
2023/03/13 05:04:29;;;;;;;2.87;1.97;;;12.30;93.20;;;;;;5094403;28;20188;-82
2023/03/13 05:06:55;;;;;;;2.30;1.80;;;12.20;94.20;;;;;;5081079;28;20194;-81
2023/03/13 05:09:20;;;;;;;2.63;1.80;;;12.20;98.00;;;;;;5082279;28;20209;-81
2023/03/13 05:11:46;;;;;;;4.07;2.10;;;12.00;99.90;;;;;;5093892;28;20183;-81
2023/03/13 05:14:11;;;;;;;1.70;1.60;;;11.90;99.90;;;;;;5099763;28;20207;-78
2023/03/13 05:16:38;;;;;;;1.67;1.57;;;11.70;99.90;;;;;;5078728;28;20788;-82
2023/03/13 05:19:03;;;;;;;1.87;1.70;;;11.80;99.90;;;;;;5094390;28;20226;-81
2023/03/13 05:21:29;;;;;;;1.83;1.73;;;11.80;99.90;;;;;;5097834;28;20175;-81
2023/03/13 05:23:55;;;;;;;2.27;1.80;;;11.80;99.90;;;;;;5096084;28;20556;-82
2023/03/13 05:26:20;;;;;;;1.50;1.40;;;11.80;99.90;;;;;;5088159;28;20187;-83
2023/03/13 05:28:46;;;;;;;2.00;1.50;;;11.90;99.90;;;;;;5097530;28;20999;-82
2023/03/13 05:31:11;;;;;;;1.60;1.50;;;11.90;99.90;;;;;;5083841;28;20187;-81
2023/03/13 05:33:37;;;;;;;2.07;1.53;;;12.00;99.90;;;;;;5095144;28;20181;-80
2023/03/13 05:36:03;;;;;;;3.43;1.70;;;11.90;99.90;;;;;;5095717;28;20195;-79
2023/03/13 05:38:29;;;;;;;2.27;1.60;;;12.00;99.90;;;;;;5093677;28;20229;-82
2023/03/13 05:40:56;;;;;;;1.70;1.60;;;12.00;99.90;;;;;;5090620;28;20179;-81
2023/03/13 05:43:21;;;;;;;1.70;1.60;;;12.00;99.90;;;;;;5103684;28;20171;-79
2023/03/13 05:45:47;;;;;;;1.83;1.60;;;12.10;99.90;;;;;;5092687;28;20316;-80
2023/03/13 05:48:12;;;;;;;1.63;1.53;;;12.00;99.90;;;;;;5081838;28;20184;-81
2023/03/13 05:50:38;;;;;;;2.27;1.63;;;12.00;99.90;;;;;;5079336;28;20238;-80
2023/03/13 05:53:04;;;;;;;2.40;1.50;;;12.00;99.90;;;;;;5094022;28;20193;-80
2023/03/13 05:55:30;;;;;;;2.20;1.60;;;12.00;99.90;;;;;;5102612;28;20263;-78
2023/03/13 05:57:55;;;;;;;1.53;1.43;;;12.10;99.90;;;;;;5094425;28;20206;-79
2023/03/13 06:00:21;;;;;;;1.53;1.47;;;12.10;99.90;;;;;;5101509;28;20218;-79
2023/03/13 06:02:47;;;;;;;1.70;1.60;;;12.10;99.90;;;;;;5103961;28;20206;-79
2023/03/13 06:05:12;;;;;;;1.70;1.60;;;12.20;99.90;;;;;;5100340;28;20171;-79
2023/03/13 06:07:38;;;;;;;2.20;1.50;;;12.20;99.90;;;;;;5098945;28;20201;-78
2023/03/13 06:10:04;;;;;;;1.80;1.60;;;12.20;99.90;;;;;;5098441;28;20209;-78
2023/03/13 06:12:30;;;;;;;1.63;1.53;;;12.20;99.90;;;;;;5083809;28;20187;-82
2023/03/13 06:14:55;;;;;;;1.50;1.40;;;12.20;99.90;;;;;;5086784;28;20571;-80
2023/03/13 06:17:21;;;;;;;2.03;1.37;;;12.10;99.90;;;;;;5080001;28;20557;-79
2023/03/13 06:19:47;;;;;;;1.63;1.50;;;12.20;99.90;;;;;;5094571;28;20192;-81
2023/03/13 06:22:15;;;;;;;1.63;1.53;;;12.30;99.90;;;;;;5077373;28;20210;-79
2023/03/13 06:24:43;;;;;;;3.07;1.70;;;12.30;99.90;;;;;;5073892;28;20282;-79
2023/03/13 06:27:09;;;;;;;1.53;1.43;;;12.30;99.90;;;;;;5076995;28;20169;-81
2023/03/13 06:29:35;;;;;;;1.60;1.50;;;12.30;99.90;;;;;;5095678;28;20208;-80
2023/03/13 06:32:00;;;;;;;2.10;1.33;;;12.40;99.90;;;;;;5095760;28;20175;-79
2023/03/13 06:34:27;;;;;;;1.77;1.47;;;12.30;99.90;;;;;;5096878;28;20182;-79
2023/03/13 06:36:53;;;;;;;2.97;1.70;;;12.30;99.90;;;;;;5097283;28;20203;-80
2023/03/13 06:39:19;;;;;;;3.40;1.60;;;12.30;99.90;;;;;;5097442;28;20568;-81
2023/03/13 06:41:44;;;;;;;2.20;1.60;;;12.30;99.90;;;;;;5095832;28;20206;-80
2023/03/13 06:44:10;;;;;;;1.60;1.50;;;12.30;99.90;;;;;;5098438;28;20224;-82
2023/03/13 06:46:36;;;;;;;1.50;1.40;;;12.20;99.90;;;;;;5099099;28;20179;-79
2023/03/13 06:49:04;;;;;;;1.73;1.63;;;12.30;99.90;;;;;;5094149;28;20207;-80
2023/03/13 06:51:30;;;;;;;1.60;1.50;;;12.30;99.90;;;;;;5099314;28;20175;-80
2023/03/13 06:53:56;;;;;;;1.60;1.50;;;12.30;99.90;;;;;;5100048;28;20207;-80
2023/03/13 06:56:21;;;;;;;1.70;1.60;;;12.30;99.90;;;;;;5085216;28;20220;-79
2023/03/13 07:01:16;;;;;;;1.73;1.63;;;12.40;99.90;;;;;;5100335;22;20249;-84
2023/03/13 07:03:42;;;;;;;1.87;1.50;;;12.40;99.90;;;;;;5079488;28;20183;-83
2023/03/13 07:06:10;;;;;;;1.90;1.53;;;12.30;99.90;;;;;;5064907;28;20211;-85
2023/03/13 07:08:36;;;;;;;1.70;1.60;;;12.30;99.90;;;;;;5079423;28;20177;-84
2023/03/13 07:11:04;;;;;;;1.70;1.60;;;12.40;99.90;;;;;;5079644;28;20235;-84
2023/03/13 07:13:30;;;;;;;1.80;1.70;;;12.50;99.90;;;;;;5066390;28;20261;-85
2023/03/13 07:15:59;;;;;;;2.73;1.70;;;12.40;99.90;;;;;;5053156;28;20216;-85
2023/03/13 07:18:25;;;;;;;1.67;1.57;;;12.40;99.90;;;;;;5075563;28;20201;-83
2023/03/13 07:20:53;;;;;;;1.70;1.60;;;12.30;99.90;;;;;;5071147;28;20196;-84
2023/03/13 07:23:20;;;;;;;2.17;1.83;;;12.40;99.90;;;;;;5059305;28;20205;-83
2023/03/13 07:25:57;;;;;;;1.70;1.60;;;12.40;99.90;;;;;;5070898;28;20218;-84
2023/03/13 07:28:24;;;;;;;1.70;1.60;;;12.50;99.90;;;;;;5078550;28;20229;-84
2023/03/13 07:30:49;;;;;;;2.17;1.97;;;12.50;99.90;;;;;;5080334;28;20201;-84
2023/03/13 07:33:15;;;;;;;1.50;1.40;;;12.50;99.90;;;;;;5083053;28;20244;-84
2023/03/13 07:35:47;;;;;;;2.50;1.60;;;12.60;99.90;;;;;;5081600;28;20180;-84
2023/03/13 07:38:12;;;;;;;1.97;1.77;;;12.60;99.90;;;;;;5082091;28;20250;-85
2023/03/13 07:40:38;;;;;;;1.70;1.50;;;12.70;99.90;;;;;;5071608;28;20209;-83
2023/03/13 07:43:04;;;;;;;1.70;1.60;;;12.80;99.90;;;;;;5060786;28;20316;-85
2023/03/13 07:45:29;;;;;;;1.70;1.60;;;12.80;99.90;;;;;;5060220;28;20561;-85
2023/03/13 07:47:55;;;;;;;1.70;1.60;;;12.70;99.90;;;;;;5046145;28;20253;-83
2023/03/13 07:50:21;;;;;;;2.07;1.80;;;12.90;99.90;;;;;;5079708;28;20608;-84
2023/03/13 07:52:46;;;;;;;2.03;1.90;;;12.80;99.90;;;;;;5066614;28;20232;-85
2023/03/13 07:55:12;;;;;;;1.60;1.50;;;12.90;99.90;;;;;;5066515;28;20190;-84
2023/03/13 07:57:38;;;;;;;1.80;1.50;;;13.00;99.90;;;;;;5043157;28;20807;-84
2023/03/13 08:00:08;;;;;;;1.80;1.70;;;13.20;99.10;;;;;;5060800;28;20273;-84
2023/03/13 08:02:34;;;;;;;1.60;1.50;;;13.40;98.30;;;;;;5059416;28;20171;-84
2023/03/13 08:04:59;;;;;;;2.07;1.60;;;13.30;98.20;;;;;;5058090;28;20289;-85
2023/03/13 08:07:25;;;;;;;2.20;1.77;;;13.30;97.80;;;;;;5089891;28;20237;-86
2023/03/13 08:09:51;;;;;;;1.70;1.60;;;13.30;97.90;;;;;;5093596;28;20213;-85
2023/03/13 08:12:16;;;;;;;1.70;1.60;;;13.30;98.20;;;;;;5072593;28;20243;-83
2023/03/13 08:14:42;;;;;;;1.70;1.60;;;13.40;97.50;;;;;;5056853;28;20179;-84
2023/03/13 08:17:07;;;;;;;1.67;1.57;;;13.40;97.40;;;;;;5055700;28;20592;-85
2023/03/13 08:19:33;;;;;;;1.87;1.60;;;13.60;97.00;;;;;;5062418;28;20210;-84
2023/03/13 08:21:58;;;;;;;1.63;1.50;;;13.60;96.00;;;;;;5057357;28;20194;-85
2023/03/13 08:24:24;;;;;;;2.10;1.50;;;13.60;96.10;;;;;;5057102;28;20183;-84
2023/03/13 08:26:49;;;;;;;1.70;1.60;;;13.60;96.10;;;;;;5057808;28;20215;-83
2023/03/13 08:29:15;;;;;;;1.57;1.47;;;13.70;95.50;;;;;;5075675;28;20210;-84
2023/03/13 08:31:50;;;;;;;1.50;1.40;;;13.60;95.20;;;;;;5079975;28;20184;-85
2023/03/13 08:34:17;;;;;;;1.87;1.77;;;13.70;95.70;;;;;;5078155;28;20310;-83
2023/03/13 08:36:43;;;;;;;1.80;1.70;;;13.70;94.60;;;;;;5078855;28;20290;-85
2023/03/13 08:39:14;;;;;;;1.93;1.70;;;13.70;95.00;;;;;;5078146;28;20221;-83
2023/03/13 08:41:40;;;;;;;1.70;1.60;;;13.70;94.60;;;;;;5081005;28;20178;-84
2023/03/13 08:44:07;;;;;;;1.90;1.80;;;13.70;94.50;;;;;;5063763;28;20222;-85
2023/03/13 08:46:35;;;;;;;2.33;1.80;;;13.70;95.60;;;;;;5081962;28;20186;-83
2023/03/13 08:49:01;;;;;;;1.70;1.60;;;13.80;94.30;;;;;;5082508;28;20445;-83
2023/03/13 08:51:28;;;;;;;1.70;1.60;;;13.80;93.90;;;;;;5081490;28;20187;-84
2023/03/13 08:53:54;;;;;;;1.70;1.60;;;13.80;95.10;;;;;;5083168;28;20187;-85
2023/03/13 08:56:23;;;;;;;1.83;1.73;;;13.90;93.60;;;;;;5079729;28;20206;-83
2023/03/13 08:58:54;;;;;;;2.07;1.70;;;14.00;92.90;;;;;;5082199;28;20184;-83
2023/03/13 09:01:22;;;;;;;2.17;2.03;;;14.00;94.70;;;;;;5079854;28;20202;-85
2023/03/13 09:03:47;;;;;;;1.80;1.70;;;13.90;94.50;;;;;;5081307;28;20175;-85
2023/03/13 09:06:13;;;;;;;1.80;1.70;;;13.90;93.40;;;;;;5080724;28;20259;-83
2023/03/13 09:08:40;;;;;;;2.40;1.63;;;14.10;91.80;;;;;;5080966;28;20193;-85
2023/03/13 09:11:17;;;;;;;2.10;1.90;;;14.20;92.70;;;;;;5072098;28;20269;-83
2023/03/13 09:13:45;;;;;;;3.37;2.00;;;14.40;91.00;;;;;;5059912;28;20208;-86
2023/03/13 09:16:18;;;;;;;1.90;1.80;;;14.50;90.10;;;;;;5059600;28;20184;-85
2023/03/13 09:18:46;;;;;;;1.90;1.80;;;14.70;88.50;;;;;;5043031;28;20497;-84
2023/03/13 09:21:18;;;;;;;2.10;2.00;;;14.90;89.30;;;;;;5060983;28;20196;-84
2023/03/13 09:23:43;;;;;;;1.90;1.80;;;15.10;85.30;;;;;;5060935;28;20300;-85
2023/03/13 09:26:10;;;;;;;3.00;2.10;;;15.20;85.10;;;;;;5062466;28;20198;-85
2023/03/13 09:28:35;;;;;;;2.33;2.00;;;15.30;86.20;;;;;;5072686;28;20265;-85
2023/03/13 09:31:16;;;;;;;2.10;1.90;;;15.50;85.00;;;;;;5081697;28;20226;-85
2023/03/13 09:33:42;;;;;;;2.53;2.03;;;15.60;81.80;;;;;;5080142;28;20550;-84
2023/03/13 09:36:08;;;;;;;1.90;1.80;;;15.30;83.80;;;;;;5079991;28;20172;-85
2023/03/13 09:38:35;;;;;;;2.90;2.20;;;15.20;86.00;;;;;;5080550;28;20184;-85
2023/03/13 09:41:27;;;;;;;2.60;1.97;;;15.20;85.70;;;;;;5081447;28;20213;-82
2023/03/13 09:43:57;;;;;;;3.00;2.23;;;15.20;85.30;;;;;;5075405;28;20192;-85
2023/03/13 09:46:52;;;;;;;2.50;2.20;;;15.10;86.70;;;;;;5081650;28;20178;-83
2023/03/13 09:49:41;;;;;;;1.80;1.70;;;15.20;85.40;;;;;;5079169;28;20204;-84
2023/03/13 09:52:30;;;;;;;2.00;1.90;;;15.20;85.30;;;;;;5061883;28;20285;-83
2023/03/13 09:55:29;;;;;;;2.30;2.00;;;15.20;85.60;;;;;;5063350;28;20200;-83
2023/03/13 09:58:01;;;;;;;4.57;2.20;;;15.50;84.80;;;;;;5062993;28;20190;-85
2023/03/13 10:00:33;;;;;;;2.53;2.10;;;15.50;83.90;;;;;;5053367;28;20214;-84
2023/03/13 10:03:07;;;;;;;2.33;2.13;;;15.40;82.20;;;;;;5063322;28;20170;-85
2023/03/13 10:05:33;;;;;;;2.40;2.20;;;15.50;82.30;;;;;;5080299;28;20200;-84
2023/03/13 10:08:15;;;;;;;5.80;2.47;;;15.60;82.20;;;;;;5081802;28;20179;-84
2023/03/13 10:10:56;;;;;;;3.20;3.00;;;15.70;82.60;;;;;;5081904;28;20223;-84
2023/03/13 10:13:35;;;;;;;2.30;2.10;;;15.80;80.90;;;;;;5082275;28;20388;-85
2023/03/13 10:16:08;;;;;;;2.50;2.30;;;15.80;80.50;;;;;;5082416;28;20209;-84
2023/03/13 10:18:35;;;;;;;2.30;2.10;;;15.90;80.70;;;;;;5081122;28;20171;-85
2023/03/13 10:21:13;;;;;;;3.23;2.27;;;16.00;79.70;;;;;;5080256;28;20217;-84
2023/03/13 10:23:46;;;;;;;2.43;2.23;;;16.10;79.90;;;;;;5080730;28;20728;-85
2023/03/13 10:26:36;;;;;;;2.40;2.20;;;16.10;80.60;;;;;;5080710;28;20238;-84
2023/03/13 10:29:23;;;;;;;2.57;2.30;;;16.30;78.00;;;;;;5070169;28;20214;-85
2023/03/13 10:32:01;;;;;;;3.37;2.73;;;16.30;78.10;;;;;;5079957;28;20501;-85
2023/03/13 10:34:53;;;;;;;2.70;2.30;;;16.20;80.70;;;;;;5080426;28;20265;-84
2023/03/13 10:37:26;;;;;;;2.10;2.00;;;16.10;80.40;;;;;;5076423;28;20313;-85
2023/03/13 10:39:52;;;;;;;3.53;2.37;;;16.10;78.60;;;;;;5069766;28;20194;-86
2023/03/13 10:42:26;;;;;;;2.90;2.27;;;15.90;79.60;;;;;;5062548;28;20184;-85
2023/03/13 10:45:00;;;;;;;2.87;2.30;;;16.00;79.40;;;;;;5062753;28;20164;-84
2023/03/13 10:47:31;;;;;;;3.83;2.20;;;16.30;77.60;;;;;;5062919;28;20196;-84
2023/03/13 10:49:57;;;;;;;2.40;2.20;;;16.50;76.70;;;;;;5063641;28;20200;-84
2023/03/13 10:52:41;;;;;;;2.93;2.47;;;17.20;74.20;;;;;;5063269;28;20206;-85
2023/03/13 10:55:17;;;;;;;2.90;2.57;;;17.50;72.50;;;;;;5063084;28;20195;-84
2023/03/13 10:57:56;;;;;;;2.50;2.30;;;17.70;71.90;;;;;;5079805;28;20680;-84
2023/03/13 11:00:34;;;;;;;2.60;2.40;;;18.00;70.90;;;;;;5079717;28;20216;-84
2023/03/13 11:03:05;;;;;;;2.27;2.17;;;18.30;68.90;;;;;;5079042;28;20169;-84
2023/03/13 11:05:38;;;;;;;2.33;2.20;;;18.20;68.80;;;;;;5078476;28;20197;-84
2023/03/13 11:08:14;;;;;;;2.30;2.07;;;18.30;68.60;;;;;;5078206;28;20526;-84
2023/03/13 11:11:01;;;;;;;3.40;2.33;;;18.20;68.80;;;;;;5079741;28;20198;-84
2023/03/13 11:13:33;;;;;;;2.50;2.30;;;18.50;66.90;;;;;;5079983;28;20188;-84
2023/03/13 11:16:08;;;;;;;2.57;2.37;;;18.60;68.00;;;;;;5060716;28;20190;-83
2023/03/13 11:19:00;;;;;;;2.43;2.23;;;18.90;66.80;;;;;;5043696;28;20217;-87
2023/03/13 11:21:41;;;;;;;3.00;2.20;;;18.70;65.50;;;;;;5060965;28;20456;-87
2023/03/13 11:24:14;;;;;;;2.75;2.50;;;18.80;65.60;;;;;;5060946;28;20179;-85
2023/03/13 11:27:03;;;;;;;3.08;2.28;;;18.70;66.00;;;;;;5060446;28;20188;-85
2023/03/13 11:29:44;;;;;;;2.88;2.67;;;18.80;66.30;;;;;;5078184;28;20199;-83
2023/03/13 11:32:21;;;;;;;3.58;2.65;;;19.20;64.90;;;;;;5078939;28;20185;-85
2023/03/13 11:34:52;;;;;;;4.28;2.55;;;19.20;63.60;;;;;;5078938;28;20195;-86
2023/03/13 11:37:19;;;;;;;2.63;2.42;;;19.30;63.50;;;;;;5078522;28;20214;-80
2023/03/13 11:39:54;;;;;;;2.58;2.38;;;19.40;63.00;;;;;;5079540;28;20203;-85
2023/03/13 11:42:38;;;;;;;2.78;2.58;;;19.40;63.10;;;;;;5081015;28;20189;-85
2023/03/13 11:45:41;;;;;;;2.45;2.30;;;19.60;62.90;;;;;;5081408;28;20184;-85
2023/03/13 11:48:26;;;;;;;2.50;2.30;;;19.70;62.20;;;;;;5082247;28;20185;-85
2023/03/13 11:51:13;;;;;;;2.60;2.50;;;19.50;62.30;;;;;;5068766;28;20207;-83
2023/03/13 11:53:57;;;;;;;2.60;2.30;;;19.50;62.30;;;;;;5081396;28;20163;-85
2023/03/13 11:56:36;;;;;;;4.63;2.90;;;19.70;60.60;;;;;;5082632;28;20182;-84
2023/03/13 11:59:21;;;;;;;3.40;2.15;;;19.70;60.60;;;;;;5082628;28;20165;-86
2023/03/13 12:01:53;;;;;;;2.40;2.20;;;19.80;61.50;;;;;;5051124;28;20214;-85
2023/03/13 12:04:25;;;;;;;3.15;2.38;;;20.30;59.30;;;;;;5064650;28;20243;-86
2023/03/13 12:06:59;;;;;;;2.70;2.50;;;20.50;60.20;;;;;;5082129;28;20215;-85
2023/03/13 12:09:38;;;;;;;2.60;2.40;;;20.60;58.90;;;;;;5079331;28;20588;-84
2023/03/13 12:12:13;;;;;;;2.47;2.28;;;20.60;59.40;;;;;;5079048;28;20688;-84
2023/03/13 12:14:44;;;;;;;2.78;2.42;;;21.00;60.00;;;;;;5078667;28;20166;-83
2023/03/13 12:17:20;;;;;;;4.07;2.67;;;20.90;58.20;;;;;;5063342;28;20804;-85
2023/03/13 12:20:08;;;;;;;3.20;2.63;;;21.00;58.10;;;;;;5060406;28;20195;-85
2023/03/13 12:22:53;;;;;;;3.83;2.45;;;21.30;56.00;;;;;;5079101;28;20183;-84
2023/03/13 12:25:22;;;;;;;3.88;2.50;;;21.30;56.10;;;;;;5080350;28;20171;-86
2023/03/13 12:27:52;;;;;;;2.45;2.25;;;21.10;57.40;;;;;;5081365;28;20175;-85
2023/03/13 12:30:28;;;;;;;5.60;2.88;;;20.60;57.90;;;;;;5060156;28;20220;-86
2023/03/13 12:33:23;;;;;;;12.30;3.95;;;20.80;58.40;;;;;;5082721;28;20187;-86
2023/03/13 12:36:12;;;;;;;2.70;2.50;;;21.10;57.20;;;;;;5076041;28;20185;-84
2023/03/13 12:38:54;;;;;;;2.60;2.40;;;21.30;56.70;;;;;;5073278;28;20200;-86
2023/03/13 12:41:42;;;;;;;4.18;2.38;;;21.10;55.30;;;;;;5063737;28;20160;-84
2023/03/13 12:44:17;;;;;;;6.93;2.72;;;21.00;56.70;;;;;;5059847;28;20180;-85
2023/03/13 12:47:05;;;;;;;2.50;2.30;;;21.10;56.20;;;;;;5059700;28;20156;-84
2023/03/13 12:49:55;;;;;;;3.25;2.47;;;21.10;56.60;;;;;;5048791;28;20204;-86
2023/03/13 12:52:43;;;;;;;3.47;3.17;;;21.50;57.20;;;;;;5059505;28;20187;-85
2023/03/13 12:55:32;;;;;;;3.38;2.40;;;21.80;55.10;;;;;;5059672;28;20208;-84
2023/03/13 12:58:39;;;;;;;2.83;2.63;;;21.80;53.80;;;;;;5059508;28;20208;-84
2023/03/13 13:01:06;;;;;;;12.27;3.00;;;21.70;53.90;;;;;;5058584;28;20228;-85
2023/03/13 13:03:49;;;;;;;2.83;2.58;;;21.00;55.40;;;;;;5077235;28;20597;-83